Fivea — 2FNO8 — position and weather

sailwx.info

Track history (hours):
 
Tides and Currents Weather Stations Pressure Air Temp Water Temp Dewpoint Dewpoint Depression Visibility Wind Speed Wind Dir Waves Ship Positions

Fivea

Last reported at 2014-Aug-20 19:23 UTC. Time now 2014-Aug-21 02:22 UTC.
Position N 37°16' E 023°10'.

Length 45 m; draft 3.8 m.

Type: Other ship. MMSI: 235092742.

Date/timePositionNaut miles runAvg speedWind from/ knotsBaromVisibWave heightAir tempDewpointWater temp
2014-Aug-20 19:23N 37°16' E 023°10'  
2014-Aug-17 15:21N 37°15' E 023°10'1 0.1
2014-Aug-17 07:32N 37°16' E 023°10'0 0.0
2014-Aug-17 06:26N 37°16' E 023°10'0 0.0
2014-Aug-16 06:15N 37°16' E 023°10'0 0.0
2014-Aug-15 15:21N 37°16' E 023°10'0 0.0
2014-Aug-15 14:33N 37°16' E 023°10'0 0.0
2014-Aug-15 13:33N 37°16' E 023°10'0 0.0
2014-Aug-15 08:15N 37°16' E 023°10'0 0.0
2014-Aug-15 06:03N 37°16' E 023°10'0 0.0
2014-Aug-15 05:27N 37°16' E 023°10'0 0.0
2014-Aug-15 04:09N 37°16' E 023°10'0 0.0
2014-Aug-14 15:21N 37°16' E 023°10'1012.0
2014-Aug-14 14:33N 37°15' E 023°22'9 1.5
2014-Aug-14 08:33N 37°14' E 023°33'1312.7
2014-Aug-14 07:33N 37°11' E 023°48'1212.4
2014-Aug-14 06:33N 37°07' E 024°03'1312.6
2014-Aug-14 05:33N 37°04' E 024°18'20 0.5
2014-Aug-12 15:30N 36°55' E 024°41'2 2.1
2014-Aug-12 14:23N 36°56' E 024°44'0 0.0
2014-Aug-12 13:29N 36°56' E 024°44'0 0.0
2014-Aug-12 12:29N 36°56' E 024°44'0 0.0
2014-Aug-12 11:29N 36°56' E 024°44'0 0.0
2014-Aug-12 10:29N 36°56' E 024°44'0 0.1
2014-Aug-12 09:33N 36°56' E 024°44'1211.7
2014-Aug-12 08:33N 36°56' E 024°59'7 7.2
2014-Aug-12 07:34N 37°01' E 025°05'1 1.3
2014-Aug-12 06:32N 37°02' E 025°05'0 0.0
2014-Aug-12 05:32N 37°02' E 025°05'0 0.0
2014-Aug-12 04:32N 37°02' E 025°05'0 0.0
2014-Aug-12 03:32N 37°02' E 025°05'0 0.0
2014-Aug-12 02:32N 37°02' E 025°05'0 0.0
2014-Aug-12 01:32N 37°02' E 025°05'0 0.0
2014-Aug-12 00:32N 37°02' E 025°05'0 0.0
2014-Aug-11 23:32N 37°02' E 025°05'0 0.0
2014-Aug-11 22:32N 37°02' E 025°05'0 0.0
2014-Aug-11 21:32N 37°02' E 025°05'0 0.0
2014-Aug-11 20:32N 37°02' E 025°05'0 0.0
2014-Aug-11 19:32N 37°02' E 025°05'0 0.0
2014-Aug-11 18:32N 37°02' E 025°05'0 0.0
2014-Aug-11 17:32N 37°02' E 025°05'0 0.0
2014-Aug-11 16:32N 37°02' E 025°05'0 0.0
2014-Aug-11 15:26N 37°02' E 025°05'0 0.0
2014-Aug-11 14:32N 37°02' E 025°05'0 0.0
2014-Aug-11 13:32N 37°02' E 025°05'0 0.0
2014-Aug-11 12:32N 37°02' E 025°05'0 0.0
2014-Aug-11 11:32N 37°02' E 025°05'0 0.0
2014-Aug-11 10:32N 37°02' E 025°05'0 0.0
2014-Aug-11 09:32N 37°02' E 025°05'0 0.0
2014-Aug-11 08:32N 37°02' E 025°05'0 0.0
2014-Aug-11 07:32N 37°02' E 025°05'0 0.0
2014-Aug-11 06:32N 37°02' E 025°05'0 0.0
2014-Aug-11 05:32N 37°02' E 025°05'0 0.0
2014-Aug-11 04:32N 37°02' E 025°05'0 0.0
2014-Aug-11 03:32N 37°02' E 025°05'0 0.0
2014-Aug-11 02:32N 37°02' E 025°05'0 0.0
2014-Aug-11 01:32N 37°02' E 025°05'0 0.0
2014-Aug-11 00:32N 37°02' E 025°05'0 0.0
2014-Aug-10 23:32N 37°02' E 025°05'0 0.0
2014-Aug-10 22:32N 37°02' E 025°05'0 0.0
2014-Aug-10 21:32N 37°02' E 025°05'0 0.0
2014-Aug-10 20:32N 37°02' E 025°05'0 0.0
2014-Aug-10 19:32N 37°02' E 025°05'  
Track history (hours):
 
Tides and Currents Weather Stations Pressure Air Temp Water Temp Dewpoint Dewpoint Depression Visibility Wind Speed Wind Dir Waves Ship Positions

Fivea

Last reported at 2014-Aug-20 19:23 UTC. Time now 2014-Aug-21 02:22 UTC.
Position N 37°16' E 023°10'.

Length 45 m; draft 3.8 m.

Type: Other ship. MMSI: 235092742.

Date/timePositionNaut miles runAvg speedWind from/ knotsBaromVisibWave heightAir tempDewpointWater temp
2014-Aug-20 19:23N 37°16' E 023°10'  
2014-Aug-17 15:21N 37°15' E 023°10'1 0.1
2014-Aug-17 07:32N 37°16' E 023°10'0 0.0
2014-Aug-17 06:26N 37°16' E 023°10'0 0.0
2014-Aug-16 06:15N 37°16' E 023°10'0 0.0
2014-Aug-15 15:21N 37°16' E 023°10'0 0.0
2014-Aug-15 14:33N 37°16' E 023°10'0 0.0
2014-Aug-15 13:33N 37°16' E 023°10'0 0.0
2014-Aug-15 08:15N 37°16' E 023°10'0 0.0
2014-Aug-15 06:03N 37°16' E 023°10'0 0.0
2014-Aug-15 05:27N 37°16' E 023°10'0 0.0
2014-Aug-15 04:09N 37°16' E 023°10'0 0.0
2014-Aug-14 15:21N 37°16' E 023°10'1012.0
2014-Aug-14 14:33N 37°15' E 023°22'9 1.5
2014-Aug-14 08:33N 37°14' E 023°33'1312.7
2014-Aug-14 07:33N 37°11' E 023°48'1212.4
2014-Aug-14 06:33N 37°07' E 024°03'1312.6
2014-Aug-14 05:33N 37°04' E 024°18'20 0.5
2014-Aug-12 15:30N 36°55' E 024°41'2 2.1
2014-Aug-12 14:23N 36°56' E 024°44'0 0.0
2014-Aug-12 13:29N 36°56' E 024°44'0 0.0
2014-Aug-12 12:29N 36°56' E 024°44'0 0.0
2014-Aug-12 11:29N 36°56' E 024°44'0 0.0
2014-Aug-12 10:29N 36°56' E 024°44'0 0.1
2014-Aug-12 09:33N 36°56' E 024°44'1211.7
2014-Aug-12 08:33N 36°56' E 024°59'7 7.2
2014-Aug-12 07:34N 37°01' E 025°05'1 1.3
2014-Aug-12 06:32N 37°02' E 025°05'0 0.0
2014-Aug-12 05:32N 37°02' E 025°05'0 0.0
2014-Aug-12 04:32N 37°02' E 025°05'0 0.0
2014-Aug-12 03:32N 37°02' E 025°05'0 0.0
2014-Aug-12 02:32N 37°02' E 025°05'0 0.0
2014-Aug-12 01:32N 37°02' E 025°05'0 0.0
2014-Aug-12 00:32N 37°02' E 025°05'0 0.0
2014-Aug-11 23:32N 37°02' E 025°05'0 0.0
2014-Aug-11 22:32N 37°02' E 025°05'0 0.0
2014-Aug-11 21:32N 37°02' E 025°05'0 0.0
2014-Aug-11 20:32N 37°02' E 025°05'0 0.0
2014-Aug-11 19:32N 37°02' E 025°05'0 0.0
2014-Aug-11 18:32N 37°02' E 025°05'0 0.0
2014-Aug-11 17:32N 37°02' E 025°05'0 0.0
2014-Aug-11 16:32N 37°02' E 025°05'0 0.0
2014-Aug-11 15:26N 37°02' E 025°05'0 0.0
2014-Aug-11 14:32N 37°02' E 025°05'0 0.0
2014-Aug-11 13:32N 37°02' E 025°05'0 0.0
2014-Aug-11 12:32N 37°02' E 025°05'0 0.0
2014-Aug-11 11:32N 37°02' E 025°05'0 0.0
2014-Aug-11 10:32N 37°02' E 025°05'0 0.0
2014-Aug-11 09:32N 37°02' E 025°05'0 0.0
2014-Aug-11 08:32N 37°02' E 025°05'0 0.0
2014-Aug-11 07:32N 37°02' E 025°05'0 0.0
2014-Aug-11 06:32N 37°02' E 025°05'0 0.0
2014-Aug-11 05:32N 37°02' E 025°05'0 0.0
2014-Aug-11 04:32N 37°02' E 025°05'0 0.0
2014-Aug-11 03:32N 37°02' E 025°05'0 0.0
2014-Aug-11 02:32N 37°02' E 025°05'0 0.0
2014-Aug-11 01:32N 37°02' E 025°05'0 0.0
2014-Aug-11 00:32N 37°02' E 025°05'0 0.0
2014-Aug-10 23:32N 37°02' E 025°05'0 0.0
2014-Aug-10 22:32N 37°02' E 025°05'0 0.0
2014-Aug-10 21:32N 37°02' E 025°05'0 0.0
2014-Aug-10 20:32N 37°02' E 025°05'0 0.0
2014-Aug-10 19:32N 37°02' E 025°05'  

Dump ship's entire track history